To NAV CANADA Home Page Login to a new session Search on AWWS site Feedback and Comments Disclaimer Vers la page française équivalente Tips FAQ What's new on the site To the Forecasts and Observations / NOTAM section To "File a Flight Plan" website Publications and other links Update of the User's profile FIC Telephone Numbers My Weather Data Folder Route Weather Data Regional Weather Data Local Weather Data To the Forecasts and Observations / NOTAM section
Request Generated 09/27/2016 at 00:07:20 UTC . Weather information available at that time is displayed.

METAR/TAF

HIGH LEVEL/AB    (show WxCam)

METAR CYOJ 270000Z 18005KT 140V240 15SM FEW100 SCT260 21/07 A2957 RMK
AC1CI2 SLP024 DENSITY ALT 2400FT=
METAR CYOJ 262300Z 20005KT 140V320 15SM FEW100 BKN260 21/08 A2959 RMK
AC2CI4 SLP031 DENSITY ALT 2400FT=
METAR CYOJ 262200Z 15006KT 15SM SCT090 BKN260 20/08 A2961 RMK AC3CI3
SLP039 DENSITY ALT 2200FT=

TAF CYOJ 261838Z 2619/2707 16008KT P6SM SCT080 BKN120
RMK NXT FCST BY 270100Z=
Your time UTC time
Weather data provided by Environment Canada and NAV CANADA